createdAt,value
2024-03-07T07:42:02.823Z,73.59
2024-03-07T07:44:48.274Z,73.42
2024-03-07T07:47:37.194Z,73.58
2024-03-07T07:50:25.429Z,72.41
2024-03-07T07:53:11.789Z,73.34
2024-03-07T07:55:57.170Z,72.46
2024-03-07T07:58:42.580Z,69.42
2024-03-07T08:01:28.363Z,71.25
2024-03-07T08:04:13.872Z,69.05
2024-03-07T08:06:59.388Z,67.74
2024-03-07T08:09:44.596Z,68.57
2024-03-07T08:12:29.741Z,67.02
2024-03-07T08:15:16.451Z,68.46
2024-03-07T08:18:02.014Z,68.18
2024-03-07T08:20:48.096Z,66.99
2024-03-07T08:23:33.484Z,65.05
2024-03-07T08:26:19.114Z,65.01
2024-03-07T08:29:05.880Z,64.46
2024-03-07T08:31:51.076Z,64.60
2024-03-07T08:34:36.579Z,64.28
2024-03-07T08:37:22.403Z,63.69
2024-03-07T08:40:10.940Z,64.11
2024-03-07T08:42:57.050Z,62.48
2024-03-07T08:45:43.393Z,62.02
2024-03-07T08:48:28.422Z,62.01
2024-03-07T08:51:14.201Z,59.62
2024-03-07T08:54:00.302Z,59.79
2024-03-07T08:56:46.650Z,59.76
2024-03-07T08:59:34.501Z,60.08
2024-03-07T09:02:19.732Z,60.10
2024-03-07T09:05:06.800Z,58.51
2024-03-07T09:07:53.229Z,59.38
2024-03-07T09:10:42.333Z,58.96
2024-03-07T09:13:28.160Z,59.14
2024-03-07T09:16:13.872Z,58.27
2024-03-07T09:18:59.183Z,58.50
2024-03-07T09:21:44.780Z,57.26
2024-03-07T09:24:31.827Z,56.45
2024-03-07T09:27:20.831Z,56.02
2024-03-07T09:30:12.755Z,55.16
2024-03-07T09:32:58.543Z,53.95
2024-03-07T09:35:43.725Z,54.69
2024-03-07T09:38:29.194Z,54.48
2024-03-07T09:41:16.931Z,54.47
2024-03-07T09:44:02.923Z,53.54
2024-03-07T09:46:48.870Z,52.93
2024-03-07T09:49:36.884Z,52.50
2024-03-07T09:52:22.575Z,52.15
2024-03-07T09:55:09.180Z,52.03
2024-03-07T09:57:56.763Z,52.19
2024-03-07T10:00:43.551Z,50.09
2024-03-07T10:03:30.758Z,50.29
2024-03-07T10:06:16.275Z,50.26
2024-03-07T10:09:01.870Z,47.85
2024-03-07T10:11:57.096Z,47.92
2024-03-07T10:14:57.694Z,48.05
2024-03-07T10:17:47.234Z,47.44
2024-03-07T10:20:33.167Z,47.87
2024-03-07T10:23:21.855Z,47.40
2024-03-07T10:26:07.266Z,47.03
2024-03-07T10:28:52.437Z,46.14
2024-03-07T10:31:43.857Z,46.33
2024-03-07T10:34:35.164Z,45.78
2024-03-07T10:37:25.961Z,45.35
2024-03-07T10:40:16.806Z,44.90
2024-03-07T10:43:10.828Z,43.97
2024-03-07T10:45:59.529Z,43.71
2024-03-07T10:48:46.905Z,44.01
2024-03-07T10:51:46.773Z,44.38
2024-03-07T10:54:49.677Z,44.23
2024-03-07T10:57:50.456Z,44.16
2024-03-07T11:00:38.228Z,44.29
2024-03-07T11:03:23.953Z,45.24
2024-03-07T11:06:12.468Z,44.92
2024-03-07T11:08:59.067Z,44.87
2024-03-07T11:11:45.221Z,44.70
2024-03-07T11:14:32.706Z,44.72
2024-03-07T11:17:23.261Z,43.67
2024-03-07T11:20:24.225Z,43.66
2024-03-07T11:23:33.828Z,43.42
2024-03-07T11:26:19.144Z,43.23
2024-03-07T11:29:44.152Z,42.23
2024-03-07T11:32:31.678Z,42.43
2024-03-07T11:35:23.537Z,43.13
2024-03-07T11:38:09.865Z,43.34
2024-03-07T11:40:57.859Z,42.75
2024-03-07T11:43:44.387Z,43.14
2024-03-07T11:46:33.152Z,44.06
2024-03-07T11:49:18.724Z,44.56
2024-03-07T11:52:14.329Z,44.39
2024-03-07T11:55:05.292Z,43.58
2024-03-07T11:57:54.226Z,43.61
2024-03-07T12:00:43.592Z,43.90
2024-03-07T12:03:30.507Z,42.65
2024-03-07T12:06:18.181Z,42.75
2024-03-07T12:09:07.569Z,43.32
2024-03-07T12:11:54.065Z,44.31
2024-03-07T12:14:40.007Z,44.21
2024-03-07T12:17:25.800Z,44.22
2024-03-07T12:20:31.443Z,43.42
2024-03-07T12:23:20.355Z,43.23
2024-03-07T12:26:06.593Z,43.54
2024-03-07T12:28:54.181Z,43.25
2024-03-07T12:31:43.150Z,43.56
2024-03-07T12:34:31.320Z,43.80
2024-03-07T12:37:17.731Z,44.33
2024-03-07T12:40:18.657Z,44.20
2024-03-07T12:43:22.911Z,44.25
2024-03-07T12:46:09.948Z,42.24
2024-03-07T12:48:59.342Z,41.96
2024-03-07T12:51:45.339Z,40.97
2024-03-07T12:54:30.812Z,40.75
2024-03-07T12:57:15.888Z,40.91
2024-03-07T13:00:01.202Z,41.32
2024-03-07T13:02:48.362Z,41.13
2024-03-07T13:05:33.849Z,40.75
2024-03-07T13:08:19.117Z,39.62
2024-03-07T13:11:06.535Z,38.87
2024-03-07T13:13:53.461Z,39.22
2024-03-07T13:16:38.817Z,39.40
2024-03-07T13:19:26.764Z,40.17
2024-03-07T13:22:13.100Z,39.62
2024-03-07T13:24:58.337Z,40.10
2024-03-07T13:27:52.781Z,40.64
2024-03-07T13:30:38.952Z,40.72
2024-03-07T13:33:26.010Z,41.18
2024-03-07T13:36:14.448Z,41.44
2024-03-07T13:39:00.320Z,40.48
2024-03-07T13:41:49.296Z,40.06
2024-03-07T13:44:35.200Z,38.75
2024-03-07T13:47:21.630Z,37.98
2024-03-07T13:50:15.369Z,38.29
2024-03-07T13:53:08.036Z,38.40
2024-03-07T13:56:13.076Z,38.28
2024-03-07T13:59:04.408Z,38.34
2024-03-07T14:02:06.500Z,38.80
2024-03-07T14:05:32.082Z,38.18
2024-03-07T14:08:50.798Z,37.74
2024-03-07T14:12:15.187Z,38.65
2024-03-07T14:15:45.685Z,39.49
2024-03-07T14:18:55.356Z,40.02
2024-03-07T14:22:00.480Z,39.25
2024-03-07T14:25:18.432Z,39.24
2024-03-07T14:28:49.146Z,39.58
2024-03-07T14:31:40.809Z,40.50
2024-03-07T14:34:32.468Z,40.40
2024-03-07T14:37:32.788Z,40.61
2024-03-07T14:40:18.314Z,41.21
2024-03-07T14:43:07.413Z,40.49
2024-03-07T14:45:56.310Z,41.30
2024-03-07T14:48:42.175Z,41.19
2024-03-07T14:51:27.684Z,41.39
2024-03-07T14:54:13.186Z,41.76
2024-03-07T14:56:58.487Z,42.38
2024-03-07T14:59:44.330Z,42.31
2024-03-07T15:02:29.422Z,42.43
2024-03-07T15:05:20.708Z,42.64
2024-03-07T15:08:06.703Z,42.54
2024-03-07T15:10:58.679Z,42.40
2024-03-07T15:13:46.416Z,41.89
2024-03-07T15:16:37.421Z,41.21
2024-03-07T15:19:24.086Z,41.40
2024-03-07T15:22:09.388Z,41.71
2024-03-07T15:24:54.503Z,41.22
2024-03-07T15:27:42.936Z,40.99
2024-03-07T15:30:39.826Z,41.21
2024-03-07T15:33:24.798Z,40.39
2024-03-07T15:36:10.716Z,40.81
2024-03-07T15:39:00.127Z,41.07
2024-03-07T15:41:45.792Z,41.28
2024-03-07T15:44:31.222Z,40.71
2024-03-07T15:47:21.273Z,40.83
2024-03-07T15:50:07.221Z,41.29
2024-03-07T15:52:52.690Z,41.48
2024-03-07T15:55:39.081Z,41.55
2024-03-07T15:58:24.668Z,41.83
2024-03-07T16:01:10.191Z,41.52
2024-03-07T16:03:56.505Z,42.07
2024-03-07T16:06:45.197Z,42.20
2024-03-07T16:09:30.347Z,42.40
2024-03-07T16:12:15.531Z,42.35
2024-03-07T16:15:02.140Z,43.07
2024-03-07T16:17:49.244Z,43.46
2024-03-07T16:20:34.853Z,43.15
2024-03-07T16:23:20.427Z,43.81
2024-03-07T16:26:05.734Z,44.08
2024-03-07T16:28:52.723Z,44.08
2024-03-07T16:31:40.083Z,44.73
2024-03-07T16:34:25.412Z,44.48
2024-03-07T16:37:11.020Z,44.86
2024-03-07T16:39:56.256Z,45.30
2024-03-07T16:42:44.524Z,45.19
2024-03-07T16:45:31.487Z,45.21
2024-03-07T16:48:17.959Z,45.84
2024-03-07T16:51:04.867Z,46.17
2024-03-07T16:53:50.381Z,46.06
2024-03-07T16:56:41.977Z,46.54
2024-03-07T16:59:27.362Z,46.17
2024-03-07T17:02:12.785Z,46.67
2024-03-07T17:04:59.176Z,46.96
2024-03-07T17:07:45.487Z,47.03
2024-03-07T17:10:37.273Z,46.62
2024-03-07T17:13:24.089Z,47.22
2024-03-07T17:16:09.520Z,47.12
2024-03-07T17:18:54.570Z,47.74
2024-03-07T17:21:40.246Z,47.60
2024-03-07T17:24:26.724Z,48.10
2024-03-07T17:27:14.099Z,47.62
2024-03-07T17:30:01.092Z,48.48
2024-03-07T17:32:47.349Z,47.87
2024-03-07T17:35:35.466Z,47.93
2024-03-07T17:38:21.700Z,48.93
2024-03-07T17:41:07.212Z,48.84
2024-03-07T17:43:52.589Z,48.68
2024-03-07T17:46:38.265Z,48.80
2024-03-07T17:49:25.035Z,48.70
2024-03-07T17:52:13.871Z,48.89
2024-03-07T17:54:59.461Z,49.29
2024-03-07T17:57:46.181Z,49.13
2024-03-07T18:00:33.139Z,49.27
2024-03-07T18:03:20.549Z,49.14
2024-03-07T18:06:05.902Z,49.50
2024-03-07T18:11:37.859Z,49.55
2024-03-07T18:14:24.485Z,49.55
2024-03-07T18:17:10.014Z,48.81
2024-03-07T18:19:56.285Z,49.42
2024-03-07T18:22:43.418Z,49.70
2024-03-07T18:25:28.983Z,49.24
2024-03-07T18:28:15.492Z,49.08
2024-03-07T18:31:26.801Z,49.27
2024-03-07T18:34:11.775Z,49.92
2024-03-07T18:36:58.180Z,49.59
2024-03-07T18:39:43.601Z,49.50
2024-03-07T18:42:32.671Z,49.96
2024-03-07T18:45:22.933Z,50.11
2024-03-07T18:48:09.307Z,49.95
2024-03-07T18:50:55.120Z,50.03
2024-03-07T18:53:40.439Z,50.99
2024-03-07T18:56:25.766Z,51.10
2024-03-07T18:59:11.103Z,50.61
2024-03-07T19:01:56.741Z,50.69
2024-03-07T19:04:44.846Z,51.44
2024-03-07T19:07:32.749Z,51.13
2024-03-07T19:10:18.277Z,51.22
2024-03-07T19:13:10.895Z,51.80
2024-03-07T19:15:59.146Z,51.49
